Terminal Aerodrome Forecast
Issued by NWS

Home | Current Version | Previous Version | Text Only | Print | Product List | Glossary On
Versions: 1 2 3 4 5 6 7 8 9 10 11 12 13 14 15 16 17 18
000
FTUS42 KMLB 301732
TAFSUA
TAF
KSUA 301732Z 3018/3118 25010KT P6SM SCT025 BKN045
     FM302000 25009KT P6SM VCTS SCT030CB BKN250
      TEMPO 3021/3023 3SM TSRA BKN030CB
     FM310000 25004KT P6SM FEW035 BKN250
     FM311400 22009KT P6SM SCT018 SCT250=

USA.gov is the U.S. government's official web portal to all federal, state and local government web resources and services.